createdAt,value
2022-08-14T00:58:44.911Z,21.06
2022-08-14T01:03:52.612Z,21.04
2022-08-14T01:08:59.065Z,20.97
2022-08-14T01:14:04.990Z,20.94
2022-08-14T01:19:41.243Z,20.89
2022-08-14T01:24:43.909Z,20.81
2022-08-14T01:30:01.275Z,20.73
2022-08-14T01:35:17.701Z,20.67
2022-08-14T01:40:36.766Z,20.66
2022-08-14T01:45:49.179Z,20.69
2022-08-14T01:51:19.247Z,20.74
2022-08-14T01:56:23.654Z,20.81
2022-08-14T02:01:26.519Z,20.85
2022-08-14T02:06:33.135Z,20.87
2022-08-14T02:11:37.061Z,20.89
2022-08-14T02:16:40.312Z,20.90
2022-08-14T02:21:47.049Z,20.89
2022-08-14T02:26:58.273Z,20.87
2022-08-14T02:32:30.076Z,20.81
2022-08-14T02:37:45.713Z,20.76
2022-08-14T02:42:54.241Z,20.71
2022-08-14T02:47:57.581Z,20.73
2022-08-14T02:53:07.550Z,20.75
2022-08-14T02:58:11.454Z,20.72
2022-08-14T03:03:31.718Z,20.56
2022-08-14T03:08:37.923Z,20.47
2022-08-14T03:13:41.998Z,20.50
2022-08-14T03:18:45.727Z,20.55
2022-08-14T03:23:50.231Z,20.66
2022-08-14T03:28:52.642Z,20.73
2022-08-14T03:33:54.591Z,20.80
2022-08-14T03:39:10.752Z,20.84
2022-08-14T03:45:33.351Z,20.88
2022-08-14T03:49:46.060Z,20.89
2022-08-14T03:54:52.932Z,20.83
2022-08-14T03:59:54.688Z,20.69
2022-08-14T04:04:57.377Z,20.56
2022-08-14T04:10:17.245Z,20.47
2022-08-14T04:15:23.599Z,20.43
2022-08-14T04:20:26.866Z,20.36
2022-08-14T04:25:28.835Z,20.32
2022-08-14T04:30:42.291Z,20.32
2022-08-14T04:35:56.207Z,20.38
2022-08-14T04:41:18.000Z,20.46
2022-08-14T04:46:55.856Z,20.56
2022-08-14T04:51:55.442Z,20.70
2022-08-14T04:56:58.608Z,20.81
2022-08-14T05:02:01.584Z,20.93
2022-08-14T05:07:05.294Z,21.02
2022-08-14T05:12:54.920Z,21.14
2022-08-14T05:17:43.679Z,21.27
2022-08-14T05:22:45.926Z,21.40
2022-08-14T05:27:47.407Z,21.54
2022-08-14T05:32:48.797Z,21.68
2022-08-14T05:37:50.210Z,21.83
2022-08-14T05:42:52.812Z,22.00
2022-08-14T05:47:55.195Z,22.12
2022-08-14T05:52:58.677Z,22.26
2022-08-14T05:58:02.543Z,22.39
2022-08-14T06:03:08.951Z,22.53
2022-08-14T06:08:21.676Z,22.62
2022-08-14T06:13:44.516Z,22.58
2022-08-14T06:18:52.929Z,22.66
2022-08-14T06:23:56.848Z,22.77
2022-08-14T06:29:02.006Z,22.93
2022-08-14T06:35:03.030Z,23.07
2022-08-14T06:39:36.997Z,23.21
2022-08-14T06:44:40.178Z,23.37
2022-08-14T06:49:48.496Z,23.51
2022-08-14T06:54:58.628Z,23.67
2022-08-14T07:00:00.902Z,23.83
2022-08-14T07:05:22.863Z,23.96
2022-08-14T07:10:25.522Z,24.11
2022-08-14T07:15:27.001Z,24.26
2022-08-14T07:20:32.096Z,24.40
2022-08-14T07:25:33.736Z,24.56
2022-08-14T07:30:35.406Z,24.73
2022-08-14T07:35:57.826Z,24.92
2022-08-14T07:40:59.653Z,25.11
2022-08-14T07:46:01.118Z,25.26
2022-08-14T07:51:10.776Z,25.34
2022-08-14T07:56:21.705Z,25.55
2022-08-14T08:01:34.333Z,25.68
2022-08-14T08:06:35.778Z,25.80
2022-08-14T08:11:37.766Z,25.96
2022-08-14T08:16:39.974Z,26.09
2022-08-14T08:21:43.818Z,26.17
2022-08-14T08:26:46.450Z,26.23
2022-08-14T08:31:52.033Z,26.24
2022-08-14T08:36:53.690Z,26.23
2022-08-14T08:41:58.270Z,26.32
2022-08-14T08:47:03.620Z,26.43
2022-08-14T08:52:05.180Z,26.55
2022-08-14T08:57:16.443Z,26.67
2022-08-14T09:02:26.163Z,26.70
2022-08-14T09:07:28.995Z,26.72
2022-08-14T09:12:34.011Z,26.85
2022-08-14T09:17:36.301Z,26.95
2022-08-14T09:22:47.264Z,27.06
2022-08-14T09:27:49.946Z,27.16
2022-08-14T09:33:11.214Z,27.27
2022-08-14T09:38:26.084Z,27.37
2022-08-14T09:43:55.261Z,27.64
2022-08-14T09:48:58.649Z,28.02
2022-08-14T09:54:19.584Z,28.26
2022-08-14T09:59:25.023Z,28.43
2022-08-14T10:04:35.610Z,28.50
2022-08-14T10:09:59.861Z,28.52
2022-08-14T10:15:13.642Z,28.51
2022-08-14T10:20:40.307Z,28.60
2022-08-14T10:25:44.412Z,28.70
2022-08-14T10:30:53.493Z,28.78
2022-08-14T10:35:55.135Z,28.87
2022-08-14T10:41:09.928Z,29.03
2022-08-14T10:47:36.878Z,29.11
2022-08-14T10:51:35.235Z,29.26
2022-08-14T10:56:37.824Z,29.44
2022-08-14T11:01:41.295Z,29.63
2022-08-14T11:06:51.550Z,29.82
2022-08-14T11:11:56.653Z,29.90
2022-08-14T11:17:21.846Z,29.80
2022-08-14T11:22:55.552Z,29.71
2022-08-14T11:27:49.369Z,29.79
2022-08-14T11:32:52.208Z,29.79
2022-08-14T11:37:54.538Z,29.81
2022-08-14T11:42:59.303Z,29.82
2022-08-14T11:48:13.141Z,29.95
2022-08-14T11:53:28.524Z,30.05
2022-08-14T11:58:34.067Z,30.38
2022-08-14T12:03:52.441Z,30.63
2022-08-14T12:09:00.265Z,30.78
2022-08-14T12:14:07.161Z,30.95
2022-08-14T12:19:15.580Z,30.88
2022-08-14T12:24:36.657Z,30.68
2022-08-14T12:29:41.486Z,30.52
2022-08-14T12:34:44.958Z,30.45
2022-08-14T12:39:46.786Z,30.26
2022-08-14T12:44:48.665Z,30.16
2022-08-14T12:49:52.803Z,30.21
2022-08-14T12:55:01.542Z,30.32
2022-08-14T13:00:23.219Z,30.44
2022-08-14T13:05:27.463Z,30.53
2022-08-14T13:10:51.330Z,30.63
2022-08-14T13:15:57.268Z,30.74
2022-08-14T13:21:02.021Z,30.81
2022-08-14T13:26:03.711Z,30.87
2022-08-14T13:31:09.065Z,30.87
2022-08-14T13:36:23.755Z,30.86
2022-08-14T13:41:31.491Z,30.92
2022-08-14T13:46:36.106Z,30.87
2022-08-14T13:51:47.234Z,30.81
2022-08-14T13:56:51.029Z,30.86
2022-08-14T14:01:52.852Z,30.88
2022-08-14T14:07:01.578Z,30.83
2022-08-14T14:12:04.207Z,30.83
2022-08-14T14:17:07.009Z,30.86
2022-08-14T14:22:09.679Z,30.83
2022-08-14T14:27:39.316Z,30.79
2022-08-14T14:32:52.453Z,30.86
2022-08-14T14:37:54.868Z,30.96
2022-08-14T14:42:59.633Z,31.09
2022-08-14T14:48:01.921Z,31.19
2022-08-14T14:53:12.841Z,31.22
2022-08-14T14:58:16.262Z,31.12
2022-08-14T15:03:22.103Z,31.04
2022-08-14T15:08:26.579Z,30.98
2022-08-14T15:13:53.259Z,30.83
2022-08-14T15:18:54.900Z,30.67
2022-08-14T15:23:56.254Z,30.51
2022-08-14T15:29:03.009Z,30.32
2022-08-14T15:34:43.135Z,30.21
2022-08-14T15:39:38.126Z,30.13
2022-08-14T15:44:44.680Z,30.08
2022-08-14T15:50:00.322Z,30.06
2022-08-14T15:55:04.308Z,30.12
2022-08-14T16:00:40.373Z,30.14
2022-08-14T16:05:45.798Z,30.12
2022-08-14T16:10:47.705Z,30.12
2022-08-14T16:15:53.174Z,30.05
2022-08-14T16:20:58.958Z,30.12
2022-08-14T16:26:01.891Z,30.14
2022-08-14T16:31:05.629Z,30.07
2022-08-14T16:36:30.000Z,30.01
2022-08-14T16:41:32.669Z,29.96
2022-08-14T16:46:42.996Z,29.88
2022-08-14T16:51:46.364Z,29.74
2022-08-14T16:56:54.249Z,29.56
2022-08-14T17:02:00.719Z,29.35
2022-08-14T17:07:10.674Z,29.22
2022-08-14T17:12:28.334Z,29.09
2022-08-14T17:17:36.240Z,28.96
2022-08-14T17:22:48.190Z,28.86
2022-08-14T17:33:44.079Z,28.75
2022-08-14T17:38:59.587Z,28.72
2022-08-14T17:44:13.829Z,28.69
2022-08-14T17:49:23.726Z,28.67
2022-08-14T17:54:34.910Z,28.64
2022-08-14T17:59:39.332Z,28.58
2022-08-14T18:04:44.093Z,28.39
2022-08-14T18:09:57.010Z,28.21
2022-08-14T18:15:06.623Z,28.00
2022-08-14T18:21:41.113Z,27.82
2022-08-14T18:25:48.215Z,27.64
2022-08-14T18:30:58.553Z,27.52
2022-08-14T18:36:48.731Z,27.37
2022-08-14T18:41:36.323Z,27.25
2022-08-14T18:47:01.003Z,27.10
2022-08-14T18:52:12.806Z,26.97
2022-08-14T18:57:20.823Z,26.82
2022-08-14T19:02:30.713Z,26.67
2022-08-14T19:07:34.171Z,26.55
2022-08-14T19:12:56.504Z,26.44
2022-08-14T19:18:05.002Z,26.31
2022-08-14T19:23:18.192Z,26.19
2022-08-14T19:28:27.271Z,26.08
2022-08-14T19:33:46.851Z,25.97
2022-08-14T19:38:51.975Z,25.86
2022-08-14T19:43:56.885Z,25.71
2022-08-14T19:48:59.365Z,25.57
2022-08-14T19:54:13.517Z,25.50
2022-08-14T19:59:19.109Z,25.41
2022-08-14T20:04:45.713Z,25.33
2022-08-14T20:11:03.748Z,25.28
2022-08-14T20:15:15.589Z,25.23
2022-08-14T20:20:21.052Z,25.19
2022-08-14T20:25:37.352Z,25.12
2022-08-14T20:30:48.717Z,25.03
2022-08-14T20:35:52.041Z,24.92
2022-08-14T20:40:59.484Z,24.79
2022-08-14T20:46:11.325Z,24.67
2022-08-14T20:51:20.364Z,24.52
2022-08-14T20:56:28.550Z,24.42
2022-08-14T21:01:33.615Z,24.35
2022-08-14T21:07:23.337Z,24.27
2022-08-14T21:12:04.529Z,24.22
2022-08-14T21:17:06.009Z,24.15
2022-08-14T21:22:09.785Z,24.11
2022-08-14T21:27:21.909Z,24.04
2022-08-14T21:32:50.237Z,23.98
2022-08-14T21:37:58.431Z,23.93
2022-08-14T21:43:01.464Z,23.92
2022-08-14T21:48:11.161Z,23.91
2022-08-14T21:53:14.302Z,23.91
2022-08-14T21:58:51.851Z,23.89
2022-08-14T22:03:44.967Z,23.85
2022-08-14T22:08:52.807Z,23.83
2022-08-14T22:13:56.055Z,23.81
2022-08-14T22:18:57.413Z,23.79
2022-08-14T22:23:58.797Z,23.78
2022-08-14T22:29:01.710Z,23.78
2022-08-14T22:34:03.965Z,23.75
2022-08-14T22:39:05.918Z,23.69
2022-08-14T22:44:17.831Z,23.64
2022-08-14T22:50:29.253Z,23.59
2022-08-14T22:54:51.317Z,23.45
2022-08-14T22:59:54.743Z,23.30
2022-08-14T23:04:56.286Z,23.16
2022-08-14T23:10:33.099Z,23.05
2022-08-14T23:15:21.360Z,23.00
2022-08-14T23:20:29.428Z,22.94
2022-08-14T23:25:58.531Z,22.85
2022-08-14T23:30:54.270Z,22.80
2022-08-14T23:35:58.983Z,22.77
2022-08-14T23:41:02.484Z,22.75
2022-08-14T23:46:12.649Z,22.71
2022-08-14T23:51:15.737Z,22.66
2022-08-14T23:56:30.329Z,22.64
